Ride Results

Tom Quilty Gold Cup (07-06-1996)
Ride distance: 160.0 km

Outcomes - Tom Quilty Gold Cup (07-06-1996)
Division No. of Entries Retired / DNE Completed Withdrawn Ineligible V/O Percentage Completed
HW 57 - 33 7 - 17 57.89%
MW 115 - 66 6 - 43 57.39%
LW 50 - 31 3 - 16 62.00%
JN 17 - 10 1 - 6 58.82%
Totals 239 - 140 17 - 82 58.58%
Results - Tom Quilty Gold Cup (07-06-1996)
No. Rider Horse Place Time Leg Speeds Total
Km/Hr
H/R bpm
Heavyweight
118 Brian Keep Doran Park Nimbus 1 10:16:00 19.1, 13.3, 13.6, 17.7 15.58 29, 40, 48, 54, 52 (Avg:48)
190 Ron Haigh Camalot Ambassador 2 10:55:00 15.0, 11.5, 13.4, 21.8 14.66 31, 39, 44, 46, 52 (Avg:45)
37 Terry Wood Peppersfield Nabucco 3 11:08:00 14.6, 12.5, 13.2, 18.1 14.37 34, 42, 48, 53, 50 (Avg:48)
174 Bob Sample Sharahd Lexia 4 11:48:00 16.4, 13.3, 10.8, 14.9 13.56 44, 46, 56, 46, 43 (Avg:47)
25 Andrew Bailey Warrior 5 12:02:00 13.8, 10.5, 12.9, 17.6 13.30 27, 39, 44, 48, 52 (Avg:45)
180 Bill Standfield Joseph 6 12:32:00 14.6, 10.2, 11.3, 16.7 12.77 36, 36, 52, 54, 51 (Avg:48)
33 Damien Bonham Archer 7 12:45:00 13.3, 10.3, 11.9, 15.8 12.55 32, 37, 51, 52, 54 (Avg:48)
9 Jake Tammens Black Jack 8 12:47:00 12.9, 10.1, 11.8, 16.7 12.52 36, 44, 52, 50, 49 (Avg:48)
188 Chris Pollitt Avante 9 12:49:00 13.7, 10.1, 11.0, 17.1 12.48 30, 40, 43, 44, 45 (Avg:43)
184 Craig Renner Dunwingeri Mashari 10 13:42:00 13.7, 9.6, 9.9, 15.0 11.68 32, 40, 45, 46, 45 (Avg:44)
208 Gavin Mudge Tesian 11 14:04:00 12.6, 9.7, 9.7, 14.6 11.37 34, 46, 51, 48, 54 (Avg:49)
181 Barry Thurlow Willow 12 14:12:00 12.5, 8.8, 9.6, 17.0 11.27 36, 39, 50, 50, 52 (Avg:47)
128 Andrew McNicol Aden 13 14:18:00 14.3, 9.4, 9.2, 13.4 11.19 33, 44, 53, 52, 57 (Avg:51)
217 Wayne Brodie Wenway Shakari 14 14:37:00 11.8, 9.1, 10.3, 13.4 10.95 32, 40, 48, 47, 45 (Avg:45)
61 Fritz Seehofer Silver Syrus 15 15:03:00 11.2, 8.9, 9.6, 13.7 10.63 33, 40, 48, 44, 56 (Avg:47)
107 Gavin Bartlett Jackson Brown 16 15:08:00 13.6, 8.4, 8.3, 15.0 10.57 30, 40, 45, 44, 51 (Avg:45)
129 Ken Bradley Brandy 17 15:16:00 10.0, 10.5, 8.6, 13.7 10.48 44, 45, 59, 46, 48 (Avg:49)
223 Patrick Burns Pedro 17 15:16:00 12.5, 8.3, 9.0, 14.0 10.48 40, 50, 52, 50, 52 (Avg:51)
122 Frank Muddyman Bidgee 17 15:16:00 13.4, 8.3, 8.6, 13.7 10.48 36, 43, 46, 50, 49 (Avg:47)
21 Denise Trollope Churinga Babooshka 20 15:31:00 11.7, 7.8, 10.3, 12.6 10.31 30, 44, 55, 59, 57 (Avg:53)
104 Ross Hill Sharahd Flint 21 16:02:00 12.3, 8.1, 8.4, 12.7 9.98 34, 37, 52, 42, 45 (Avg:44)
165 Gary Mcintosh Bullarto's Ali 22 16:07:00 13.7, 11.0, 7.2, 9.9 9.93 36, 47, 57, 54, 53 (Avg:52)
214 Brian Trotman Silver Cloud Marquillo 23 16:17:00 11.4, 8.6, 8.0, 12.3 9.83 34, 48, 53, 56, 58 (Avg:53)
202 Selwyn Nix Shiraz 24 16:27:00 12.9, 8.1, 8.2, 10.9 9.73 34, 46, 40, 40, 48 (Avg:43)
26 Matthew Walker Parlour Mountain Banjo 25 16:29:00 11.1, 8.2, 8.2, 12.6 9.71 34, 47, 52, 58, 52 (Avg:52)
187 Ivan Sampson Hilbrae LC 26 16:36:00 9.7, 7.6, 9.4, 12.9 9.64 36, 36, 40, 44, 54 (Avg:43)
72 Allie Roberts Legacy Of Lachlan 27 17:01:00 11.9, 8.0, 7.9, 10.8 9.40 40, 51, 60, 52, 60 (Avg:55)
140 Robert Punicki Brieema Mcinness 28 17:26:00 10.9, 7.2, 8.2, 11.8 9.18 32, 46, 45, 48, 47 (Avg:46)
126 Norm Whitelaw Merelida 29 17:29:00 11.7, 7.8, 7.1, 11.8 9.15 26, 39, 48, 44, 46 (Avg:44)
123 Sally Holmes Faraway Pippa 30 17:46:00 11.8, 7.1, 7.9, 10.6 9.01 32, 40, 50, 57, 48 (Avg:48)
144 Luke Steele Nikita Bint Kopoola 31 17:49:00 11.2, 8.2, 7.0, 10.7 8.98 38, 48, 57, 59, 40 (Avg:51)
90 Tony De Govrik Maluna Carillo 32 18:10:00 10.0, 7.7, 7.3, 11.3 8.81 42, 42, 52, 50, 52 (Avg:49)
82 Cary Mustow Parlour Mountain Tabatha 33 18:22:00 9.7, 7.4, 7.8, 10.6 8.71 31, 43, 48, 46, 42 (Avg:44)
95 Michael O'Brien Kelkette Park Ibn Khazelle Lame L4 0:00:00 12.6, 8.7, 11.2, 17.0 - 32, 40, 51, 56, 52 (Avg:49)
170 David Somerville Beauzephalis Metabolics L4 0:00:00 14.0, 11.7, 12.5, 15.1 - 31, 42, 50, 53, 58 (Avg:50)
134 Amanda Allen Salah El Saadraan Lame L3 0:00:00 12.1, 8.4, 7.0 - 36, 53, 50, 40 (Avg:47)
227 Dennis Foley Snr Bullet Lame L3 0:00:00 16.3, 12.2, 13.1 - 36, 42, 56, 56 (Avg:51)
42 Trevor Knight Valinor Park Armistice Widthdrawn L3 0:00:00 - - 32, 39, 43, 44 (Avg:42)
163 Eddie Rouse Paddy Widthdrawn L3 0:00:00 - - 36, 48, 56, 58 (Avg:54)
36 Ern Gleeson Portwood Ashtar Heart Rate L2 0:00:00 12.3, 8.9 - 42, 48, 76 (Avg:62)
28 Wayne Hegarty Melody's Flight Heart Rate L2 0:00:00 10.0, 7.7 - 37, 42, 61 (Avg:51)
87 Russell Holmes Karumba Byron Lame L2 0:00:00 11.8, 7.1 - 35, 47, 52 (Avg:49)
19 Brad Innes Tarong Revaal Widthdrawn L2 0:00:00 - - 49, 48, 53 (Avg:50)
38 Col Joyce Kaid Lame L2 0:00:00 15.5, 11.2 - 40, 46, 48 (Avg:47)
43 John Lee Denny Heart Rate L2 0:00:00 13.4, 11.0 - 30, 44, 64 (Avg:54)
146 Shane Murtagh Bozo Lame L2 0:00:00 9.2, 7.4 - 28, 40, 46 (Avg:43)
226 Norb Radny Inez Al Nimir Lame L2 0:00:00 16.5, 10.3 - 34, 48, 50 (Avg:49)
113 Ian Rooney Kelkette Park Dominic Widthdrawn L2 0:00:00 - - 34, 38, 50 (Avg:44)
70 Colin Spicer Kuhaylan Saliha Heart Rate L2 0:00:00 11.9, 8.6 - 32, 44, 64 (Avg:54)
10 Anthony Torr Emir Heart Rate L2 0:00:00 13.1, 6.5 - 36, 52, 67 (Avg:59)
14 Ray Tylee Doran Park Kyalla Widthdrawn L2 0:00:00 - - 32, 42, 50 (Avg:46)
212 Paula Van Eck Narrawa Gaisah Lame L2 0:00:00 10.0, 7.6 - 29, 42, 51 (Avg:46)
101 Mark Hughes Lady Mcgregor Metabolics L1 0:00:00 11.4 - 47
59 Marty Moran Lac-la-biche Bazada Heart Rate L1 0:00:00 11.3 - 28, 72 (Avg:72)
218 Denis Sugars El Shahb Elagance Heart Rate L1 0:00:00 11.8 - 33, 67 (Avg:67)
121 Keith Whitehead Daluma Delray Widthdrawn L1 0:00:00 - - 38, 45 (Avg:45)
137 Teena Pearse Bessy Widthdrawn P/R 0:00:00 - - 0
Middleweight
199 Mark Haigh Rah Fire (exp UAE) 1 8:14:00 18.1, 15.3, 18.7, 30.7 19.43 32, 40, 48, 53, 54 (Avg:48)
175 Brook Sample Sharahd Caprice 2 8:26:00 16.4, 14.8, 17.3, 39.9 18.97 38, 48, 58, 56, 53 (Avg:53)
239 Martin Parker Tracee Two 3 8:53:00 17.7, 15.0, 20.5, 19.6 18.01 36, 40, 48, 54, 52 (Avg:48)
189 Caroline Fitzgerald Suruk 4 9:28:00 17.7, 15.0, 17.2, 17.7 16.90 28, 40, 44, 44, 42 (Avg:42)
1 Ross Gillett Mukhalli 5 10:30:00 15.6, 11.5, 15.3, 21.0 15.24 31, 47, 48, 58, 50 (Avg:50)
63 Peter Norman Trecadeu Omanique Saphire 6 10:55:00 16.2, 13.1, 12.7, 17.6 14.66 34, 44, 46, 46, 51 (Avg:46)
23 Searle Johnston Narraburra Magnifique 7 11:02:00 15.4, 10.6, 14.0, 21.6 14.50 38, 47, 48, 48, 48 (Avg:47)
27 Travis Suprano Hamamas Destiny 8 11:29:00 13.8, 10.0, 14.2, 22.2 13.93 28, 41, 44, 47, 46 (Avg:44)
169 Louise Lewis Kasara Zeus 9 11:45:00 14.5, 11.3, 12.3, 17.7 13.62 24, 38, 46, 50, 49 (Avg:45)
130 Bryan Dupuy Kelkette Park Dean 10 11:52:00 13.7, 10.8, 13.1, 18.0 13.48 32, 49, 46, 48, 48 (Avg:47)
139 Sue Reed Kevisan Park Zamira 11 12:25:00 15.7, 10.7, 10.7, 16.4 12.89 29, 34, 58, 46, 44 (Avg:45)
76 Stuart Hitchcock Flash-Lite 12 12:34:00 16.3, 11.9, 10.7, 13.1 12.73 36, 50, 53, 50, 49 (Avg:50)
34 Sonia Bonham Rhimfire 13 12:45:00 13.3, 10.3, 11.9, 15.8 12.55 30, 40, 56, 43, 44 (Avg:45)
24 Elizabeth Williams Santarabia Zedimus 14 12:48:00 15.6, 11.4, 11.3, 12.3 12.50 28, 46, 58, 58, 47 (Avg:52)
60 Kevin Bohm Kelkette Park Lark 15 12:49:00 16.2, 11.0, 10.5, 13.5 12.48 42, 42, 59, 56, 50 (Avg:51)
71 Graham Mitchell Cedar Ridge Nikalee 15 12:49:00 16.3, 13.4, 15.1, 8.4 12.48 32, 44, 49, 58, 48 (Avg:49)
173 Jim Wells Ausden Silver Sparkle 15 12:49:00 13.4, 10.2, 11.0, 17.1 12.48 33, 42, 46, 48, 55 (Avg:47)
172 Erica Williams Sharahd Friday 15 12:49:00 13.4, 10.2, 11.0, 17.1 12.48 28, 40, 40, 49, 46 (Avg:43)
186 Paul Brown Zamethra 19 12:51:00 13.8, 10.7, 11.0, 15.3 12.45 44, 50, 57, 57, 57 (Avg:55)
198 Veronica Parker Betty Boo 19 12:51:00 14.7, 10.2, 10.1, 17.6 12.45 32, 46, 50, 52, 44 (Avg:48)
74 Otto Van Kampen Melfi 21 12:57:00 13.4, 9.7, 11.1, 17.5 12.36 32, 40, 51, 48, 51 (Avg:47)
78 Peter Webber Killarney Magnifique 22 13:37:00 12.1, 8.9, 10.9, 18.0 11.75 41, 48, 48, 50, 52 (Avg:49)
231 Claude Filleul Warrondi Marissa 23 13:38:00 12.1, 10.3, 9.7, 16.9 11.74 28, 39, 54, 44, 46 (Avg:45)
106 Louise McCormack Grey Rose 24 13:56:00 21.6, 8.1, 9.8, 12.9 11.48 30, 42, 50, 50, 54 (Avg:49)
51 Debby Larkings Abrock Theodore 25 13:58:00 13.2, 9.5, 9.5, 15.3 11.46 31, 42, 47, 55, 58 (Avg:50)
179 Barbara Macdonald Kildara Sharina 26 14:07:00 13.6, 9.7, 9.7, 13.3 11.33 32, 42, 48, 50, 48 (Avg:47)
6 Dianne Curtis Mr-Dunno 27 14:10:00 11.1, 9.6, 11.1, 14.0 11.29 32, 43, 48, 52, 53 (Avg:49)
73 Trent Haymen Burren-dah Sawnee 28 14:16:00 14.5, 10.3, 9.5, 11.5 11.21 35, 42, 49, 50, 53 (Avg:48)
102 Sue May Vanay Park Ambassador 29 14:23:00 8.7, 12.0, 9.8, 16.2 11.12 28, 40, 43, 46, 50 (Avg:44)
141 Michael Drinkwater Warrawee Khai 30 14:25:00 14.9, 9.9, 8.1, 14.1 11.10 32, 44, 46, 45, 50 (Avg:46)
54 Mark Freeman Cedar Ridge Ground Control 31 14:49:00 11.2, 8.5, 10.4, 14.5 10.80 33, 44, 45, 48, 44 (Avg:45)
55 Lesley Freeman Cedar Ridge Rob Roy 31 14:49:00 10.4, 9.0, 10.5, 14.4 10.80 30, 44, 44, 48, 57 (Avg:48)
108 Julia Gauci Toffee 33 14:50:00 17.2, 9.1, 8.7, 11.1 10.79 28, 48, 48, 52, 46 (Avg:48)
18 Natalie Innes Nattahl Shayne 34 14:53:00 10.3, 9.1, 9.7, 15.7 10.75 37, 43, 52, 52, 52 (Avg:49)
222 Ken Hobday Blue 35 15:16:00 12.4, 8.3, 9.0, 14.0 10.48 34, 38, 48, 46, 50 (Avg:45)
136 Julie Brooker Saracus Rowenna 36 15:30:00 12.3, 8.2, 9.4, 12.6 10.32 38, 45, 52, 54, 59 (Avg:52)
120 Geoffrey Jolly Forest Inn Kateefa 37 15:39:00 11.7, 7.9, 9.2, 13.7 10.22 38, 44, 50, 48, 49 (Avg:47)
143 Wayne Brown General 38 15:48:00 14.5, 10.4, 7.5, 10.2 10.13 32, 42, 57, 53, 54 (Avg:51)
230 Lyn Nicolle Laurjil Osca 39 15:59:00 10.8, 8.1, 8.9, 13.8 10.01 32, 36, 47, 50, 52 (Avg:46)
210 Janne Harris Valdez 40 16:01:00 10.9, 8.3, 9.5, 11.7 9.99 43, 43, 51, 59, 55 (Avg:52)
62 Peter Brownlie Hillbrook Drifter 41 16:07:00 14.3, 10.4, 8.6, 8.2 9.93 35, 44, 48, 48, 46 (Avg:46)
124 Arthur Patterson Nejina 41 16:07:00 11.2, 9.4, 8.0, 11.8 9.93 30, 36, 49, 44, 41 (Avg:42)
148 Marie Gillett Andy Capp 43 16:18:00 12.1, 9.0, 7.7, 11.5 9.82 33, 42, 57, 50, 48 (Avg:49)
168 Chris McCall Jessima Czarina 44 16:24:00 11.4, 7.5, 8.8, 12.9 9.76 32, 46, 51, 52, 54 (Avg:50)
178 June Petersen Lentara Park Jobe 44 16:24:00 10.3, 8.1, 8.5, 13.4 9.76 30, 41, 44, 51, 44 (Avg:45)
114 Ian Drummond Ibn Light 46 16:37:00 11.5, 8.1, 8.1, 11.8 9.63 30, 42, 45, 46, 47 (Avg:45)
77 Donna Tidswell Saarum 47 16:39:00 12.9, 7.4, 8.2, 11.8 9.61 40, 44, 57, 54, 48 (Avg:50)
75 Rachel Benad Parlour Mountain Grace 48 16:44:00 12.1, 7.7, 7.8, 12.4 9.56 32, 45, 60, 56, 49 (Avg:52)
39 Rowena Robinson Chifty 49 16:46:00 12.1, 7.9, 8.0, 11.4 9.54 36, 38, 54, 50, 54 (Avg:49)
149 Kathy Lowther Zarina Sharlie 50 16:52:00 10.9, 7.9, 8.3, 11.7 9.49 40, 46, 56, 56, 54 (Avg:53)
232 Keryn Mahoney Sarisha 50 16:52:00 10.6, 7.8, 9.2, 10.7 9.49 44, 39, 45, 55, 45 (Avg:46)
133 Ken Allan Beau 52 17:09:00 12.1, 8.4, 7.0, 11.5 9.33 36, 40, 55, 54, 57 (Avg:51)
207 Jess Shillabeer Waveney Ingot 53 17:11:00 8.9, 7.9, 9.1, 12.2 9.31 44, 48, 48, 51, 51 (Avg:49)
20 Brian Obrien Ralvon Grace 54 17:14:00 11.0, 8.0, 7.9, 11.0 9.28 38, 40, 50, 45, 38 (Avg:43)
66 Ron Males Ralvon Sunflower 55 17:17:00 16.6, 8.6, 6.0, 10.8 9.26 38, 47, 52, 48, 47 (Avg:48)
127 Mary Hughes Kaysand Desert Warrior 56 17:26:00 12.3, 7.4, 7.7, 11.0 9.18 44, 44, 43, 44, 40 (Avg:42)
22 Kath Crittle Tooheys Red 57 18:01:00 9.7, 7.8, 7.7, 11.0 8.88 44, 40, 49, 48, 44 (Avg:45)
125 Cathy Preston Misty 58 18:03:00 11.5, 6.9, 7.7, 10.7 8.86 35, 49, 56, 52, 52 (Avg:52)
153 Keith Preston Quabin Sarif 58 18:03:00 10.7, 7.3, 7.7, 10.7 8.86 32, 38, 46, 48, 44 (Avg:44)
47 Gaire Blunt Coolahlee Park Shasta 60 18:11:00 12.5, 6.2, 7.6, 11.9 8.80 42, 41, 45, 48, 50 (Avg:46)
50 Alexandra Treschow Karumba Dilemma 61 18:16:00 10.3, 7.4, 7.9, 10.1 8.76 38, 41, 54, 59, 46 (Avg:50)
83 Julie Mustow Turon Valley Snow Prince 62 18:22:00 9.7, 7.4, 7.8, 10.6 8.71 36, 34, 39, 43, 39 (Avg:38)
220 Judith Butler Yamegi Alexandria 63 18:46:00 10.8, 7.2, 6.6, 11.1 8.53 35, 48, 56, 50, 50 (Avg:51)
111 Sue Parsons Karumba Travellers Joy 64 19:16:00 10.0, 7.5, 7.9, 8.0 8.30 48, 38, 46, 45, 36 (Avg:41)
167 Beverley Rayner-Mason Lindsay Park Sayiid 65 19:49:00 7.4, 7.0, 7.6, 11.3 8.07 38, 40, 43, 52, 45 (Avg:45)
156 Jan Scholes Karumba Cassidy 66 20:19:00 7.4, 7.0, 7.6, 9.9 7.88 32, 40, 52, 56, 53 (Avg:50)
201 Sandra Garvin Sahateyn Gai S'jahl Lame L4 0:00:00 13.8, 10.7, 11.0, 15.3 - 39, 41, 48, 48, 52 (Avg:47)
85 Anthony Geyteman Toffreyn Heart Rate L4 0:00:00 14.7, 12.1, 9.6, 18.1 - 30, 36, 57, 47, 62 (Avg:50)
88 Irene Harris Keraminda Destiny Lame L4 0:00:00 11.1, 7.1, 7.0, 11.1 - 34, 52, 50, 55, 49 (Avg:51)
183 Scott Hill Queshahna Lame L4 0:00:00 16.1, 11.3, 14.2, 20.8 - 33, 40, 43, 46, 46 (Avg:43)
225 Anton Reid T-Jay Lame L4 0:00:00 17.7, 9.8, 10.3, 8.6 - 35, 49, 59, 58, 48 (Avg:53)
191 Erika Woodland Vet School Romulass Lame L4 0:00:00 13.7, 10.1, 11.0, 17.1 - 40, 42, 46, 46, 44 (Avg:44)
177 Chris Forrester Mandala Driftwood Heart Rate L3 0:00:00 17.0, 12.5, 17.0 - 34, 45, 58, 63 (Avg:55)
216 Penny Haberfeld Donna Heart Rate L3 0:00:00 10.0, 7.2, 9.5 - 37, 48, 53, 62 (Avg:54)
206 Gayle Holmes Charlie Lame L3 0:00:00 14.1, 12.5, 15.4 - 28, 43, 55, 56 (Avg:51)
92 Wendy Jesson Danjera Baal Lame L3 0:00:00 11.9, 7.7, 8.0 - 32, 38, 44, 58 (Avg:46)
105 Wendy Leigh Clovelly Park Tamara Heart Rate L3 0:00:00 12.6, 10.8, 12.4 - 28, 40, 53, 62 (Avg:51)
56 Louise Lemon Parlour Mountain Ambush Heart Rate L3 0:00:00 12.3, 7.3, 8.2 - 32, 43, 49, 63 (Avg:51)
203 Garry Lewis Yarrabilla Kaos Heart Rate L3 0:00:00 14.5, 11.3, 11.5 - 25, 42, 60, 72 (Avg:58)
145 George Murtagh Little Dood Widthdrawn L3 0:00:00 - - 38, 45, 48, 50 (Avg:47)
229 Phillip Robertson Muntahi Lame L3 0:00:00 19.1, 8.8, 12.6 - 34, 50, 54, 56 (Avg:53)
119 Alan Salter Pyrenees Phellen Lame L3 0:00:00 14.3, 9.4, 9.2 - 36, 38, 53, 48 (Avg:46)
233 David Sulzberger Sayida Cleo Lame L3 0:00:00 12.1, 10.3, 9.7 - 36, 46, 46, 48 (Avg:46)
4 Robyn Albers Taranova-Bahktari Heart Rate L2 0:00:00 14.5, 10.6 - 34, 43, 69 (Avg:56)
213 Jil Bourton Oak-lyn Lassiter Lame L2 0:00:00 10.9, 8.3 - 32, 40, 44 (Avg:42)
15 Oljen Butcher Doran Park Count Widthdrawn L2 0:00:00 - - 34, 44, 55 (Avg:49)
93 Margaret Cole Kurrajong Salem Widthdrawn L2 0:00:00 - - 33, 42, 48 (Avg:45)
151 Merv Fisher Jondoleer Saar Lame L2 0:00:00 13.4, 11.3 - 35, 46, 52 (Avg:49)
29 Dale Fitz-Gerald Innesview Desert Mhasa Metabolics L2 0:00:00 16.6, 11.9 - 32, 42, 53 (Avg:47)
115 Jo-Anne Francis Hazahr Heart Rate L2 0:00:00 11.5, 9.3 - 29, 46, 65 (Avg:55)
32 Howard Harris Ennerdale El Damien Widthdrawn L2 0:00:00 - - 0
35 Geoff Hurt Kejome Kayala Heart Rate L2 0:00:00 13.8, 10.0 - 36, 48, 75 (Avg:61)
57 Peter John Prince Lame L2 0:00:00 9.4, 7.5 - 42, 37, 46 (Avg:41)
117 Melva Keep Doran Park Tequila Widthdrawn L2 0:00:00 - - 40, 49, 50 (Avg:49)
41 Alan Lindsay Kintamani Fosta Heart Rate L2 0:00:00 14.6, 9.1 - 28, 43, 64 (Avg:53)
235 Doug Lockhart Pinosa Park Mikhaal Lame L2 0:00:00 11.7, 8.0 - 37, 48, 53 (Avg:50)
79 Leslie Ralph Chip Chase Fadwan Metabolics L2 0:00:00 16.3, 10.7 - 36, 39, 42 (Avg:40)
48 Claudia Reid Tristram Asham-Liela Lame L2 0:00:00 15.5, 9.8 - 32, 40, 52 (Avg:46)
65 Karen Rhodes Karrana Kelly Metabolics L2 0:00:00 12.9, 6.2 - 28, 38, 44 (Avg:41)
157 Luke Smallman Rezz Lame L2 0:00:00 13.1, 8.8 - 36, 38, 59 (Avg:48)
152 Lisa Stagg Tarrangower Jayid Heart Rate L2 0:00:00 10.4, 7.0 - 30, 37, 62 (Avg:49)
171 Dean Stephen Picadilly Excelsea Heart Rate L2 0:00:00 16.1, 11.3 - 40, 44, 69 (Avg:56)
131 Nony Storer Knight O'Fyre Heart Rate L2 0:00:00 13.4, 10.2 - 28, 51, 62 (Avg:56)
142 Meg Wade Tribal Heart Rate L2 0:00:00 13.8, 10.4 - 30, 37, 70 (Avg:53)
49 Janette Harvey Nunyara Heart Rate L1 0:00:00 12.9 - 32, 57 (Avg:57)
238 Kaye Heazlewood Kilimanjaro Koomeela Gall or injury L1 0:00:00 9.9 - 44, 52 (Avg:52)
68 Bob Howden Ennerdale Jalna Widthdrawn L1 0:00:00 - - 34, 52 (Avg:52)
211 Di Kajar Corfu Park Lyaj Lame L1 0:00:00 13.0 - 27, 49 (Avg:49)
11 Rachel Laidlow Bretenya Gall or injury L1 0:00:00 15.7 - 28, 42 (Avg:42)
46 Eric Robinson Double J Bullet Lame L1 0:00:00 13.3 - 32, 36 (Avg:36)
67 Mary Symons Parlour Mountain Oliver Heart Rate L1 0:00:00 13.9 - 40, 62 (Avg:62)
89 Mathew Thuaux Burnished Heart Rate L1 0:00:00 15.5 - 44, 59 (Avg:59)
7 Diana Tobin Truscott Heart Rate L1 0:00:00 16.9 - 32, 58 (Avg:58)
158 Terry Wignell Meadow View Ballad Lame L1 0:00:00 11.1 - 31, 38 (Avg:38)
110 Julie Woods Trapper Heart Rate L1 0:00:00 9.9 - 34, 64 (Avg:64)
Lightweight
215 Rose Ross Boags 1 10:55:00 16.3, 12.2, 13.1, 18.6 14.66 40, 38, 42, 44, 46 (Avg:42)
154 Trevor Ottrey El-Haffeed 2 11:17:00 13.8, 11.3, 14.7, 18.6 14.18 35, 42, 56, 59, 56 (Avg:53)
192 Anne Jones Kim Dande Tara 3 11:18:00 15.0, 11.2, 13.4, 19.0 14.16 32, 40, 47, 43, 51 (Avg:45)
176 Vanessa Gaudard Sharahd Capri 4 11:48:00 16.4, 12.2, 11.6, 14.9 13.56 32, 45, 53, 50, 50 (Avg:49)
224 Alan Hall Kargre Plazar 5 12:15:00 19.0, 12.1, 8.3, 19.6 13.06 42, 44, 52, 46, 57 (Avg:49)
3 Paul Drayton Clovelly Park Ambassador 6 12:29:00 12.6, 10.8, 12.4, 16.5 12.82 28, 38, 43, 44, 48 (Avg:43)
69 Leigh Waddell Box Hill Matilda 7 12:45:00 13.3, 10.3, 11.9, 15.8 12.55 30, 36, 44, 42, 46 (Avg:42)
234 Jennie Stafford Coolahlee Park Saydor 8 13:38:00 12.1, 10.3, 9.7, 16.9 11.74 37, 41, 44, 52, 48 (Avg:46)
185 Gail Dreyer Shayperil Golden Lady 9 14:07:00 13.6, 9.7, 9.8, 13.3 11.33 32, 38, 49, 46, 44 (Avg:44)
147 Kathy Maffett Grassmere Silver Ray 9 14:07:00 13.1, 8.8, 9.8, 15.8 11.33 28, 40, 52, 53, 53 (Avg:49)
195 Jo Hamilton-Branigan Charabal Amarita 11 14:12:00 12.5, 8.8, 9.6, 17.0 11.27 31, 35, 39, 39, 36 (Avg:37)
164 Kerry Jamieson Weerina Silver Countess 12 14:14:00 12.1, 8.8, 10.0, 16.3 11.24 22, 34, 40, 37, 40 (Avg:37)
53 Gillian Petersohn Karakatana Aluf 13 14:22:00 12.6, 8.6, 10.2, 15.0 11.14 42, 38, 42, 48, 44 (Avg:43)
138 Sharon Jones Mate 14 14:25:00 14.9, 9.9, 8.1, 14.1 11.10 25, 38, 50, 52, 46 (Avg:46)
182 Malcolm Matters Allamir Silver Domanic 15 14:26:00 13.4, 9.7, 9.2, 13.1 11.09 37, 46, 53, 50, 49 (Avg:49)
161 Nanette Hall Meggie 16 14:29:00 12.3, 8.6, 9.9, 15.3 11.05 32, 44, 44, 39, 47 (Avg:43)
12 Alecia Rebesco Clare 16 14:29:00 12.3, 8.6, 9.9, 15.3 11.05 34, 44, 45, 46, 49 (Avg:46)
58 Shirley Clark Judstan Katherina 18 14:52:00 12.9, 10.6, 9.0, 11.1 10.76 30, 47, 56, 56, 50 (Avg:52)
84 Katrina Robinson Khurafa 19 15:04:00 13.1, 8.6, 8.8, 13.7 10.62 32, 42, 48, 54, 60 (Avg:51)
150 Suzy Perry Atara Proud 20 15:41:00 11.0, 7.9, 9.2, 14.9 10.20 25, 38, 47, 40, 50 (Avg:43)
2 Karen Humphrey Pete 21 15:45:00 12.1, 8.5, 8.7, 12.4 10.16 29, 38, 43, 40, 40 (Avg:40)
17 Phyllis Ross Burren-dah Sadie 22 15:53:00 12.5, 9.0, 7.5, 13.1 10.07 32, 40, 42, 42, 44 (Avg:42)
219 Shayne Shipley Parlour Mountain Nancy 23 16:14:00 11.9, 8.2, 8.2, 12.6 9.86 46, 44, 49, 58, 53 (Avg:51)
166 Helen Spencer Menelaos 24 16:26:00 11.8, 8.0, 8.2, 12.3 9.74 34, 41, 48, 48, 52 (Avg:47)
64 Laura Cheney Fewson Henley Farm Rafas 25 16:51:00 12.7, 7.5, 7.2, 13.7 9.50 34, 48, 54, 54, 60 (Avg:54)
40 Tova Ducker Dandaloo Dominic 25 16:51:00 12.7, 7.5, 7.2, 13.7 9.50 44, 52, 44, 50, 54 (Avg:50)
237 Janelle Fidler Beau Jangles 27 17:22:00 9.7, 7.6, 8.8, 11.3 9.21 35, 42, 48, 42, 49 (Avg:45)
155 Tina Govan Roxy 28 17:26:00 12.3, 7.4, 7.7, 11.1 9.18 36, 38, 48, 52, 51 (Avg:47)
204 Briony Ledingham Karumba Germaine 29 17:45:00 10.4, 7.0, 7.9, 12.5 9.01 40, 46, 48, 50, 50 (Avg:48)
99 Pauline Brewer Leets Valley Sonny 30 18:01:00 9.7, 7.8, 7.7, 10.8 8.88 42, 38, 47, 51, 45 (Avg:45)
116 Richard Pollard Lord Arulis 31 19:49:00 7.4, 7.0, 7.6, 11.3 8.07 33, 42, 43, 52, 47 (Avg:46)
98 Kathy Vinge Ban Blue Magic Lame L4 0:00:00 11.7, 9.8, 10.3, 14.6 - 34, 42, 46, 48, 49 (Avg:46)
96 Faewyn Goyen Ranelle Widthdrawn L3 0:00:00 - - 36, 44, 56, 53 (Avg:51)
194 Randall Hirsch Sharahd Adjuna Lame L3 0:00:00 17.0, 12.5, 17.0 - 32, 42, 50, 50 (Avg:47)
86 Kimaleen John Newbridge Nasuri Lame L3 0:00:00 9.4, 7.5, 8.8 - 33, 36, 43, 47 (Avg:42)
132 Linda McKay Warrawee Sakani Heart Rate L3 0:00:00 14.1, 11.1, 14.7 - 36, 38, 44, 64 (Avg:48)
16 Tracie Munro Waitara Torren Metabolics L3 0:00:00 11.2, 8.9, 10.6 - 36, 44, 43, 52 (Avg:46)
45 Sally Stevens Tarrangower Khabir Heart Rate L3 0:00:00 10.3, 6.5, 7.6 - 28, 38, 51, 62 (Avg:50)
205 Rachel Kuns Kelkette Park Kiama Lame L2 0:00:00 16.2, 12.3 - 44, 48, 53 (Avg:50)
109 Joyce Pilkington Halls Viraq Lame L2 0:00:00 7.4, 7.0 - 24, 42, 44 (Avg:43)
209 Trish Reeves Cinzano Heart Rate L2 0:00:00 16.3, 7.7 - 36, 40, 64 (Avg:52)
8 Christine Schepisi Faraway Phaeton Heart Rate L2 0:00:00 11.3, 6.6 - 42, 41, 63 (Avg:52)
221 Kathy Williams Balgownie Minnie Richie Heart Rate L2 0:00:00 11.9, 8.1 - 36, 43, 62 (Avg:52)
112 Gillian Barber Yarra Park Amaroo Heart Rate L1 0:00:00 14.3 - 27, 57 (Avg:57)
236 Diana Carroll Jordanvale Sapphire Widthdrawn L1 0:00:00 - - 32, 40 (Avg:40)
135 Sally Cowan Bullet Lame L1 0:00:00 14.6 - 32, 40 (Avg:40)
162 Tracy Harper Rasputin Lame L1 0:00:00 9.9 - 26, 54 (Avg:54)
5 Robyn Lindholm Kaysand Echo Heart Rate L1 0:00:00 13.7 - 36, 84 (Avg:84)
31 Corey Nix Kelkette Park Nazar Widthdrawn L1 0:00:00 - - 44, 53 (Avg:53)
52 Kristen Proudfoot Ramazan Park Sharbacca Lame L1 0:00:00 10.4 - 32, 37 (Avg:37)
Junior
91 Karen Thomas Charlie 1 10:55:00 19.0, 11.9, 12.4, 17.5 14.66 32, 41, 56, 54, 50 (Avg:50)
197 Shannon Parker Lobo Magic 2 12:00:00 14.8, 10.9, 12.6, 16.1 13.33 41, 44, 48, 49, 48 (Avg:47)
196 Michael Shaw Gaddafi 3 13:16:00 11.9, 9.4, 11.4, 18.0 12.06 38, 36, 49, 54, 49 (Avg:47)
94 Kerrie Griffiths Sheik 4 14:49:00 13.1, 8.3, 9.8, 13.7 10.80 35, 40, 49, 52, 54 (Avg:48)
80 Gary Mccarthy Wave 5 15:52:00 15.4, 10.5, 8.5, 8.2 10.08 37, 51, 54, 51, 48 (Avg:51)
13131 Rebecca Goddard Prince of Persia (Gus) 6 16:03:00 14.4, 9.5, 7.3, 10.8 9.97 36, 46, 56, 54, 59 (Avg:53)
13 Derryn Nix Princess Naria 7 16:27:00 12.9, 8.1, 8.2, 10.9 9.73 36, 40, 52, 52, 59 (Avg:50)
103 Morgan Ramsay Parlour Mountain Reward 8 16:43:00 10.3, 8.2, 8.2, 12.6 9.57 44, 40, 48, 52, 53 (Avg:48)
228 Brooke Heazlewood Sasha 9 17:07:00 9.9, 7.9, 8.8, 11.3 9.35 42, 48, 56, 56, 49 (Avg:52)
100 Justin Hibberson Count Mahsindh 10 18:39:00 7.7, 7.2, 7.8, 14.1 8.58 42, 45, 60, 53, 54 (Avg:53)
30 Adam Cooper Bandeera Rajah Lame L4 0:00:00 15.6, 10.6, 9.5, 14.2 - 31, 44, 57, 54, 47 (Avg:50)
160 Kristie Taprell Kelkette Park Debutante Lame L3 0:00:00 11.0, 7.9, 9.2 - 34, 43, 49, 48 (Avg:46)
193 Adrian Brickley Rokeby Joel Metabolics L2 0:00:00 12.5, 8.8 - 40, 44, 46, 42 (Avg:44)
44 Cameron Farish Moonlite Delson Lame L2 0:00:00 15.4, 7.1 - 36, 48, 59 (Avg:53)
200 Abby Gill Sharahd Carah Lame L2 0:00:00 16.4, 14.8 - 33, 37, 47 (Avg:42)
97 Kailiea Goyen Peggy Sue Heart Rate L2 0:00:00 10.8, 6.0 - 35, 44, 62 (Avg:53)
159 Naomi McGaffin Kelkette Park Lynara Widthdrawn L2 0:00:00 - - 36, 45, 57 (Avg:51)